sensor_id;sensor_type;location;lat;lon;timestamp;temperature;humidity
59162;DHT22;44942;48.936;8.260;2022-12-18T00:04:43;19.30;40.40
59162;DHT22;44942;48.936;8.260;2022-12-18T00:09:44;19.30;40.30
59162;DHT22;44942;48.936;8.260;2022-12-18T00:14:44;19.30;40.20
59162;DHT22;44942;48.936;8.260;2022-12-18T00:19:45;19.30;40.20
59162;DHT22;44942;48.936;8.260;2022-12-18T00:24:45;19.30;40.20
59162;DHT22;44942;48.936;8.260;2022-12-18T00:29:48;19.30;40.20
59162;DHT22;44942;48.936;8.260;2022-12-18T00:34:48;19.30;40.00
59162;DHT22;44942;48.936;8.260;2022-12-18T00:39:49;19.00;39.20
59162;DHT22;44942;48.936;8.260;2022-12-18T00:44:49;18.60;38.50
59162;DHT22;44942;48.936;8.260;2022-12-18T00:49:50;18.60;38.60
59162;DHT22;44942;48.936;8.260;2022-12-18T00:54:51;18.80;39.00
59162;DHT22;44942;48.936;8.260;2022-12-18T00:59:51;18.90;39.30
59162;DHT22;44942;48.936;8.260;2022-12-18T01:04:52;18.90;39.40
59162;DHT22;44942;48.936;8.260;2022-12-18T01:09:52;19.00;39.60
59162;DHT22;44942;48.936;8.260;2022-12-18T01:14:53;19.00;39.70
59162;DHT22;44942;48.936;8.260;2022-12-18T01:19:53;19.00;39.80
59162;DHT22;44942;48.936;8.260;2022-12-18T01:24:54;19.00;39.80
59162;DHT22;44942;48.936;8.260;2022-12-18T01:29:54;19.10;40.00
59162;DHT22;44942;48.936;8.260;2022-12-18T01:34:55;19.10;40.00
59162;DHT22;44942;48.936;8.260;2022-12-18T01:39:56;19.10;40.10
59162;DHT22;44942;48.936;8.260;2022-12-18T01:45:04;19.10;40.00
59162;DHT22;44942;48.936;8.260;2022-12-18T01:50:49;19.10;40.70
59162;DHT22;44942;48.936;8.260;2022-12-18T01:55:48;19.10;39.90
59162;DHT22;44942;48.936;8.260;2022-12-18T02:00:49;19.10;40.00
59162;DHT22;44942;48.936;8.260;2022-12-18T02:11:24;19.10;39.90
59162;DHT22;44942;48.936;8.260;2022-12-18T02:16:44;19.10;39.90
59162;DHT22;44942;48.936;8.260;2022-12-18T02:27:26;19.10;39.80
59162;DHT22;44942;48.936;8.260;2022-12-18T02:32:34;19.10;39.90
59162;DHT22;44942;48.936;8.260;2022-12-18T02:37:38;18.90;39.20
59162;DHT22;44942;48.936;8.260;2022-12-18T02:42:39;18.50;38.30
59162;DHT22;44942;48.936;8.260;2022-12-18T02:47:42;18.30;38.10
59162;DHT22;44942;48.936;8.260;2022-12-18T02:53:06;18.40;38.40
59162;DHT22;44942;48.936;8.260;2022-12-18T03:03:27;18.60;38.90
59162;DHT22;44942;48.936;8.260;2022-12-18T03:08:35;18.70;39.10
59162;DHT22;44942;48.936;8.260;2022-12-18T03:13:50;18.70;39.10
59162;DHT22;44942;48.936;8.260;2022-12-18T03:18:57;18.70;39.10
59162;DHT22;44942;48.936;8.260;2022-12-18T03:23:59;18.70;39.30
59162;DHT22;44942;48.936;8.260;2022-12-18T03:29:06;18.70;39.40
59162;DHT22;44942;48.936;8.260;2022-12-18T03:34:21;18.70;39.50
59162;DHT22;44942;48.936;8.260;2022-12-18T03:39:24;18.70;39.50
59162;DHT22;44942;48.936;8.260;2022-12-18T03:49:48;18.80;39.60
59162;DHT22;44942;48.936;8.260;2022-12-18T03:54:49;18.80;39.60
59162;DHT22;44942;48.936;8.260;2022-12-18T03:59:55;18.80;39.50
59162;DHT22;44942;48.936;8.260;2022-12-18T04:04:59;18.80;39.40
59162;DHT22;44942;48.936;8.260;2022-12-18T04:10:01;18.80;40.10
59162;DHT22;44942;48.936;8.260;2022-12-18T04:15:03;18.70;39.30
59162;DHT22;44942;48.936;8.260;2022-12-18T04:20:04;18.70;39.20
59162;DHT22;44942;48.936;8.260;2022-12-18T04:25:05;18.70;39.20
59162;DHT22;44942;48.936;8.260;2022-12-18T04:30:06;18.70;39.20
59162;DHT22;44942;48.936;8.260;2022-12-18T04:35:07;18.70;39.20
59162;DHT22;44942;48.936;8.260;2022-12-18T04:40:11;18.70;39.20
59162;DHT22;44942;48.936;8.260;2022-12-18T04:45:12;18.70;39.20
59162;DHT22;44942;48.936;8.260;2022-12-18T04:50:12;18.70;39.30
59162;DHT22;44942;48.936;8.260;2022-12-18T04:55:13;18.70;39.30
59162;DHT22;44942;48.936;8.260;2022-12-18T05:00:14;18.70;39.30
59162;DHT22;44942;48.936;8.260;2022-12-18T05:05:15;18.80;39.40
59162;DHT22;44942;48.936;8.260;2022-12-18T05:10:15;18.70;39.40
59162;DHT22;44942;48.936;8.260;2022-12-18T05:15:16;18.70;39.30
59162;DHT22;44942;48.936;8.260;2022-12-18T05:20:16;18.80;39.40
59162;DHT22;44942;48.936;8.260;2022-12-18T05:25:18;18.70;39.40
59162;DHT22;44942;48.936;8.260;2022-12-18T05:30:19;18.70;39.50
59162;DHT22;44942;48.936;8.260;2022-12-18T05:35:19;18.70;39.50
59162;DHT22;44942;48.936;8.260;2022-12-18T05:40:20;18.70;39.50
59162;DHT22;44942;48.936;8.260;2022-12-18T05:45:21;18.70;39.50
59162;DHT22;44942;48.936;8.260;2022-12-18T05:50:21;18.70;39.50
59162;DHT22;44942;48.936;8.260;2022-12-18T05:55:22;18.70;39.50
59162;DHT22;44942;48.936;8.260;2022-12-18T06:00:22;18.70;39.50
59162;DHT22;44942;48.936;8.260;2022-12-18T06:05:23;18.70;39.40
59162;DHT22;44942;48.936;8.260;2022-12-18T06:10:24;18.70;39.40
59162;DHT22;44942;48.936;8.260;2022-12-18T06:15:24;18.70;39.50
59162;DHT22;44942;48.936;8.260;2022-12-18T06:20:25;18.70;39.50
59162;DHT22;44942;48.936;8.260;2022-12-18T06:25:25;18.70;39.50
59162;DHT22;44942;48.936;8.260;2022-12-18T06:30:26;18.70;39.50
59162;DHT22;44942;48.936;8.260;2022-12-18T06:35:27;18.70;39.70
59162;DHT22;44942;48.936;8.260;2022-12-18T06:40:27;18.70;39.60
59162;DHT22;44942;48.936;8.260;2022-12-18T06:45:28;18.60;39.60
59162;DHT22;44942;48.936;8.260;2022-12-18T06:50:28;18.60;39.70
59162;DHT22;44942;48.936;8.260;2022-12-18T06:55:29;18.60;39.80
59162;DHT22;44942;48.936;8.260;2022-12-18T07:00:29;18.70;40.50
59162;DHT22;44942;48.936;8.260;2022-12-18T07:05:30;18.60;39.80
59162;DHT22;44942;48.936;8.260;2022-12-18T07:10:31;18.60;39.90
59162;DHT22;44942;48.936;8.260;2022-12-18T07:15:31;18.60;39.90
59162;DHT22;44942;48.936;8.260;2022-12-18T07:20:32;18.70;40.10
59162;DHT22;44942;48.936;8.260;2022-12-18T07:25:36;18.60;39.90
59162;DHT22;44942;48.936;8.260;2022-12-18T07:30:37;18.30;37.60
59162;DHT22;44942;48.936;8.260;2022-12-18T07:35:38;16.80;35.10
59162;DHT22;44942;48.936;8.260;2022-12-18T07:40:39;16.30;35.00
59162;DHT22;44942;48.936;8.260;2022-12-18T07:45:39;16.70;35.40
59162;DHT22;44942;48.936;8.260;2022-12-18T07:50:40;16.90;35.60
59162;DHT22;44942;48.936;8.260;2022-12-18T07:55:41;17.20;35.90
59162;DHT22;44942;48.936;8.260;2022-12-18T08:00:42;17.30;36.10
59162;DHT22;44942;48.936;8.260;2022-12-18T08:05:42;17.40;36.30
59162;DHT22;44942;48.936;8.260;2022-12-18T08:10:43;17.40;36.50
59162;DHT22;44942;48.936;8.260;2022-12-18T08:15:43;17.50;36.80
59162;DHT22;44942;48.936;8.260;2022-12-18T08:20:44;17.50;37.10
59162;DHT22;44942;48.936;8.260;2022-12-18T08:25:44;17.60;37.30
59162;DHT22;44942;48.936;8.260;2022-12-18T08:30:45;17.60;37.50
59162;DHT22;44942;48.936;8.260;2022-12-18T08:35:46;17.70;37.80
59162;DHT22;44942;48.936;8.260;2022-12-18T08:40:46;17.70;37.90
59162;DHT22;44942;48.936;8.260;2022-12-18T08:45:47;17.80;38.00
59162;DHT22;44942;48.936;8.260;2022-12-18T08:50:55;17.80;38.10
59162;DHT22;44942;48.936;8.260;2022-12-18T08:55:59;17.80;38.30
59162;DHT22;44942;48.936;8.260;2022-12-18T09:01:04;17.90;38.40
59162;DHT22;44942;48.936;8.260;2022-12-18T09:06:05;18.00;38.80
59162;DHT22;44942;48.936;8.260;2022-12-18T09:11:30;18.00;39.10
59162;DHT22;44942;48.936;8.260;2022-12-18T09:16:31;18.10;39.60
59162;DHT22;44942;48.936;8.260;2022-12-18T09:21:34;18.10;39.80
59162;DHT22;44942;48.936;8.260;2022-12-18T09:26:35;18.10;40.30
59162;DHT22;44942;48.936;8.260;2022-12-18T09:31:36;18.20;41.00
59162;DHT22;44942;48.936;8.260;2022-12-18T09:36:38;18.20;40.70
59162;DHT22;44942;48.936;8.260;2022-12-18T09:41:45;18.30;41.00
59162;DHT22;44942;48.936;8.260;2022-12-18T09:52:03;18.30;42.00
59162;DHT22;44942;48.936;8.260;2022-12-18T09:57:05;18.40;41.50
59162;DHT22;44942;48.936;8.260;2022-12-18T10:02:23;18.40;41.60
59162;DHT22;44942;48.936;8.260;2022-12-18T10:13:15;18.50;41.60
59162;DHT22;44942;48.936;8.260;2022-12-18T10:23:42;18.60;41.20
59162;DHT22;44942;48.936;8.260;2022-12-18T10:28:46;18.60;40.90
59162;DHT22;44942;48.936;8.260;2022-12-18T10:33:47;18.70;40.80
59162;DHT22;44942;48.936;8.260;2022-12-18T10:38:48;18.70;40.70
59162;DHT22;44942;48.936;8.260;2022-12-18T10:49:21;18.80;40.70
59162;DHT22;44942;48.936;8.260;2022-12-18T10:54:23;18.80;40.60
59162;DHT22;44942;48.936;8.260;2022-12-18T10:59:24;18.90;40.70
59162;DHT22;44942;48.936;8.260;2022-12-18T11:04:30;18.90;40.70
59162;DHT22;44942;48.936;8.260;2022-12-18T11:09:38;18.90;40.70
59162;DHT22;44942;48.936;8.260;2022-12-18T11:14:47;18.90;40.70
59162;DHT22;44942;48.936;8.260;2022-12-18T11:19:58;19.00;40.80
59162;DHT22;44942;48.936;8.260;2022-12-18T11:25:07;19.00;40.80
59162;DHT22;44942;48.936;8.260;2022-12-18T11:30:28;19.10;40.90
59162;DHT22;44942;48.936;8.260;2022-12-18T11:41:10;19.10;41.00
59162;DHT22;44942;48.936;8.260;2022-12-18T11:46:30;19.20;41.00
59162;DHT22;44942;48.936;8.260;2022-12-18T11:52:15;19.20;41.00
59162;DHT22;44942;48.936;8.260;2022-12-18T12:02:28;19.20;41.00
59162;DHT22;44942;48.936;8.260;2022-12-18T12:13:12;19.30;40.90
59162;DHT22;44942;48.936;8.260;2022-12-18T12:29:21;19.30;40.70
59162;DHT22;44942;48.936;8.260;2022-12-18T12:34:38;19.30;40.70
59162;DHT22;44942;48.936;8.260;2022-12-18T12:39:47;19.40;40.70
59162;DHT22;44942;48.936;8.260;2022-12-18T12:44:51;19.40;40.60
59162;DHT22;44942;48.936;8.260;2022-12-18T12:49:55;19.40;40.50
59162;DHT22;44942;48.936;8.260;2022-12-18T12:54:57;19.40;40.50
59162;DHT22;44942;48.936;8.260;2022-12-18T13:00:08;19.40;40.40
59162;DHT22;44942;48.936;8.260;2022-12-18T13:05:40;19.40;40.30
59162;DHT22;44942;48.936;8.260;2022-12-18T13:10:44;19.50;40.30
59162;DHT22;44942;48.936;8.260;2022-12-18T13:16:03;19.50;40.20
59162;DHT22;44942;48.936;8.260;2022-12-18T13:21:20;19.50;40.20
59162;DHT22;44942;48.936;8.260;2022-12-18T13:36:41;19.50;40.20
59162;DHT22;44942;48.936;8.260;2022-12-18T13:41:47;19.50;40.20
59162;DHT22;44942;48.936;8.260;2022-12-18T13:46:50;19.40;40.20
59162;DHT22;44942;48.936;8.260;2022-12-18T13:51:53;19.50;40.20
59162;DHT22;44942;48.936;8.260;2022-12-18T13:56:54;19.50;40.20
59162;DHT22;44942;48.936;8.260;2022-12-18T14:01:58;19.50;40.20
59162;DHT22;44942;48.936;8.260;2022-12-18T14:07:04;19.40;40.10
59162;DHT22;44942;48.936;8.260;2022-12-18T14:12:06;19.50;40.20
59162;DHT22;44942;48.936;8.260;2022-12-18T14:17:26;19.50;40.20
59162;DHT22;44942;48.936;8.260;2022-12-18T14:22:27;19.50;40.20
59162;DHT22;44942;48.936;8.260;2022-12-18T14:27:29;19.50;40.20
59162;DHT22;44942;48.936;8.260;2022-12-18T14:32:30;19.40;40.10
59162;DHT22;44942;48.936;8.260;2022-12-18T14:37:31;19.40;40.10
59162;DHT22;44942;48.936;8.260;2022-12-18T14:42:31;19.40;40.10
59162;DHT22;44942;48.936;8.260;2022-12-18T14:47:32;19.40;40.10
59162;DHT22;44942;48.936;8.260;2022-12-18T14:52:32;19.40;40.10
59162;DHT22;44942;48.936;8.260;2022-12-18T14:57:36;19.40;40.80
59162;DHT22;44942;48.936;8.260;2022-12-18T15:02:38;19.40;40.10
59162;DHT22;44942;48.936;8.260;2022-12-18T15:07:45;19.40;40.10
59162;DHT22;44942;48.936;8.260;2022-12-18T15:17:59;19.40;40.10
59162;DHT22;44942;48.936;8.260;2022-12-18T15:23:00;19.40;40.10
59162;DHT22;44942;48.936;8.260;2022-12-18T15:28:01;19.40;40.10
59162;DHT22;44942;48.936;8.260;2022-12-18T15:33:25;19.30;40.00
59162;DHT22;44942;48.936;8.260;2022-12-18T15:38:29;19.40;40.00
59162;DHT22;44942;48.936;8.260;2022-12-18T15:43:30;19.30;39.90
59162;DHT22;44942;48.936;8.260;2022-12-18T15:48:39;19.30;39.90
59162;DHT22;44942;48.936;8.260;2022-12-18T15:53:40;19.30;39.90
59162;DHT22;44942;48.936;8.260;2022-12-18T15:58:41;19.30;39.90
59162;DHT22;44942;48.936;8.260;2022-12-18T16:03:41;19.30;39.90
59162;DHT22;44942;48.936;8.260;2022-12-18T16:08:42;19.30;40.00
59162;DHT22;44942;48.936;8.260;2022-12-18T16:13:42;19.30;39.80
59162;DHT22;44942;48.936;8.260;2022-12-18T16:18:43;19.30;39.90
59162;DHT22;44942;48.936;8.260;2022-12-18T16:23:43;19.30;39.90
59162;DHT22;44942;48.936;8.260;2022-12-18T16:28:44;19.30;39.90
59162;DHT22;44942;48.936;8.260;2022-12-18T16:33:45;19.30;39.90
59162;DHT22;44942;48.936;8.260;2022-12-18T16:38:45;19.30;40.00
59162;DHT22;44942;48.936;8.260;2022-12-18T16:43:46;19.30;39.90
59162;DHT22;44942;48.936;8.260;2022-12-18T16:48:46;19.30;40.00
59162;DHT22;44942;48.936;8.260;2022-12-18T16:53:47;19.20;39.90
59162;DHT22;44942;48.936;8.260;2022-12-18T16:58:55;19.20;40.00
59162;DHT22;44942;48.936;8.260;2022-12-18T17:04:04;19.20;40.00
59162;DHT22;44942;48.936;8.260;2022-12-18T17:09:07;19.20;40.00
59162;DHT22;44942;48.936;8.260;2022-12-18T17:14:14;19.20;40.00
59162;DHT22;44942;48.936;8.260;2022-12-18T17:19:15;19.20;40.00
59162;DHT22;44942;48.936;8.260;2022-12-18T17:24:16;19.20;40.00
59162;DHT22;44942;48.936;8.260;2022-12-18T17:29:19;19.20;40.00
59162;DHT22;44942;48.936;8.260;2022-12-18T17:34:20;19.20;40.00
59162;DHT22;44942;48.936;8.260;2022-12-18T17:39:21;19.20;40.00
59162;DHT22;44942;48.936;8.260;2022-12-18T17:44:22;19.10;39.90
59162;DHT22;44942;48.936;8.260;2022-12-18T17:49:22;19.20;40.00
59162;DHT22;44942;48.936;8.260;2022-12-18T17:54:23;19.10;40.00
59162;DHT22;44942;48.936;8.260;2022-12-18T17:59:23;19.10;40.00
59162;DHT22;44942;48.936;8.260;2022-12-18T18:04:24;19.10;40.10
59162;DHT22;44942;48.936;8.260;2022-12-18T18:09:25;19.10;40.10
59162;DHT22;44942;48.936;8.260;2022-12-18T18:14:25;19.10;40.10
59162;DHT22;44942;48.936;8.260;2022-12-18T18:19:26;19.10;40.20
59162;DHT22;44942;48.936;8.260;2022-12-18T18:24:27;19.10;40.30
59162;DHT22;44942;48.936;8.260;2022-12-18T18:29:28;19.20;40.40
59162;DHT22;44942;48.936;8.260;2022-12-18T18:34:30;19.20;40.40
59162;DHT22;44942;48.936;8.260;2022-12-18T18:39:31;19.20;40.40
59162;DHT22;44942;48.936;8.260;2022-12-18T18:44:32;19.20;40.40
59162;DHT22;44942;48.936;8.260;2022-12-18T18:49:32;19.20;40.50
59162;DHT22;44942;48.936;8.260;2022-12-18T18:54:33;19.20;40.60
59162;DHT22;44942;48.936;8.260;2022-12-18T18:59:33;19.20;40.60
59162;DHT22;44942;48.936;8.260;2022-12-18T19:04:34;19.20;40.60
59162;DHT22;44942;48.936;8.260;2022-12-18T19:09:36;19.20;40.70
59162;DHT22;44942;48.936;8.260;2022-12-18T19:14:36;19.20;40.70
59162;DHT22;44942;48.936;8.260;2022-12-18T19:19:37;19.20;40.70
59162;DHT22;44942;48.936;8.260;2022-12-18T19:24:38;19.20;40.80
59162;DHT22;44942;48.936;8.260;2022-12-18T19:29:40;19.20;40.80
59162;DHT22;44942;48.936;8.260;2022-12-18T19:34:40;19.20;40.80
59162;DHT22;44942;48.936;8.260;2022-12-18T19:39:41;19.20;40.80
59162;DHT22;44942;48.936;8.260;2022-12-18T19:44:42;19.30;40.90
59162;DHT22;44942;48.936;8.260;2022-12-18T19:49:42;19.30;41.00
59162;DHT22;44942;48.936;8.260;2022-12-18T19:54:43;19.30;41.00
59162;DHT22;44942;48.936;8.260;2022-12-18T19:59:43;19.30;41.00
59162;DHT22;44942;48.936;8.260;2022-12-18T20:04:44;19.30;41.70
59162;DHT22;44942;48.936;8.260;2022-12-18T20:09:44;19.30;41.10
59162;DHT22;44942;48.936;8.260;2022-12-18T20:14:45;19.30;41.10
59162;DHT22;44942;48.936;8.260;2022-12-18T20:19:45;19.30;41.10
59162;DHT22;44942;48.936;8.260;2022-12-18T20:24:46;19.30;41.10
59162;DHT22;44942;48.936;8.260;2022-12-18T20:29:47;19.30;41.10
59162;DHT22;44942;48.936;8.260;2022-12-18T20:34:48;19.30;41.20
59162;DHT22;44942;48.936;8.260;2022-12-18T20:39:48;19.30;41.20
59162;DHT22;44942;48.936;8.260;2022-12-18T20:44:51;19.40;41.20
59162;DHT22;44942;48.936;8.260;2022-12-18T20:49:51;19.30;41.20
59162;DHT22;44942;48.936;8.260;2022-12-18T20:54:52;19.30;41.10
59162;DHT22;44942;48.936;8.260;2022-12-18T20:59:55;19.40;41.20
59162;DHT22;44942;48.936;8.260;2022-12-18T21:04:55;19.40;41.20
59162;DHT22;44942;48.936;8.260;2022-12-18T21:09:56;19.40;41.20
59162;DHT22;44942;48.936;8.260;2022-12-18T21:14:57;19.50;41.30
59162;DHT22;44942;48.936;8.260;2022-12-18T21:20:00;19.40;41.20
59162;DHT22;44942;48.936;8.260;2022-12-18T21:25:02;19.50;41.20
59162;DHT22;44942;48.936;8.260;2022-12-18T21:30:03;19.60;41.20
59162;DHT22;44942;48.936;8.260;2022-12-18T21:35:04;19.60;41.20
59162;DHT22;44942;48.936;8.260;2022-12-18T21:40:05;19.60;41.20
59162;DHT22;44942;48.936;8.260;2022-12-18T21:45:06;19.60;41.20
59162;DHT22;44942;48.936;8.260;2022-12-18T21:50:07;19.70;41.20
59162;DHT22;44942;48.936;8.260;2022-12-18T21:55:07;19.50;40.20
59162;DHT22;44942;48.936;8.260;2022-12-18T22:00:11;19.20;39.50
59162;DHT22;44942;48.936;8.260;2022-12-18T22:05:12;19.20;39.90
59162;DHT22;44942;48.936;8.260;2022-12-18T22:10:13;19.30;40.40
59162;DHT22;44942;48.936;8.260;2022-12-18T22:15:13;19.40;40.70
59162;DHT22;44942;48.936;8.260;2022-12-18T22:20:14;19.50;40.90
59162;DHT22;44942;48.936;8.260;2022-12-18T22:25:15;19.50;41.00
59162;DHT22;44942;48.936;8.260;2022-12-18T22:30:15;19.60;41.10
59162;DHT22;44942;48.936;8.260;2022-12-18T22:35:16;19.60;41.20
59162;DHT22;44942;48.936;8.260;2022-12-18T22:40:19;19.60;41.20
59162;DHT22;44942;48.936;8.260;2022-12-18T22:45:22;19.60;41.20
59162;DHT22;44942;48.936;8.260;2022-12-18T22:50:22;19.70;41.30
59162;DHT22;44942;48.936;8.260;2022-12-18T22:55:23;19.70;41.30
59162;DHT22;44942;48.936;8.260;2022-12-18T23:00:23;19.70;41.30
59162;DHT22;44942;48.936;8.260;2022-12-18T23:05:24;19.70;41.30
59162;DHT22;44942;48.936;8.260;2022-12-18T23:10:24;19.70;41.30
59162;DHT22;44942;48.936;8.260;2022-12-18T23:15:25;19.80;41.30
59162;DHT22;44942;48.936;8.260;2022-12-18T23:20:26;19.80;41.30
59162;DHT22;44942;48.936;8.260;2022-12-18T23:25:27;19.80;41.30
59162;DHT22;44942;48.936;8.260;2022-12-18T23:30:28;19.80;41.30
59162;DHT22;44942;48.936;8.260;2022-12-18T23:35:29;19.80;41.20
59162;DHT22;44942;48.936;8.260;2022-12-18T23:40:29;19.80;41.20
59162;DHT22;44942;48.936;8.260;2022-12-18T23:45:30;19.80;41.10
59162;DHT22;44942;48.936;8.260;2022-12-18T23:50:34;19.80;41.00
59162;DHT22;44942;48.936;8.260;2022-12-18T23:55:39;19.60;39.90
